Time;durP1;ratioP1;P1;durP2;ratioP2;P2;SDS_P1;SDS_P2;PMS_P1;PMS_P2;Temp;Humidity;BMP_temperature;BMP_pressure;BME280_temperature;BME280_humidity;BME280_pressure;Samples;Min_cycle;Max_cycle;Signal;HPM_P1;HPM_P2
2023/03/25 00:00:38;;;;;;;1.00;0.60;;;14.30;63.10;14.10;95888.00;;;;5086418;28;20294;-78
2023/03/25 00:03:08;;;;;;;0.50;0.50;;;14.20;63.10;14.10;95897.00;;;;5072952;28;20253;-78
2023/03/25 00:05:35;;;;;;;0.63;0.43;;;14.20;63.10;14.10;95892.00;;;;5071894;28;20669;-78
2023/03/25 00:08:02;;;;;;;0.60;0.50;;;14.20;63.00;14.10;95889.00;;;;5077265;28;20202;-78
2023/03/25 00:10:30;;;;;;;0.40;0.40;;;14.20;63.10;14.10;95885.00;;;;5091408;28;20221;-78
2023/03/25 00:13:03;;;;;;;0.90;0.50;;;14.20;63.00;14.00;95871.00;;;;5090154;28;20226;-78
2023/03/25 00:15:32;;;;;;;0.57;0.57;;;14.20;63.00;14.00;95862.00;;;;5090240;28;20635;-78
2023/03/25 00:18:00;;;;;;;0.97;0.60;;;14.10;63.00;14.00;95867.00;;;;5071326;28;20199;-78
2023/03/25 00:20:31;;;;;;;0.40;0.40;;;14.10;63.00;14.00;95874.00;;;;5072237;28;20565;-78
2023/03/25 00:22:58;;;;;;;0.63;0.40;;;14.10;63.00;14.00;95875.00;;;;5093443;28;20640;-79
2023/03/25 00:25:25;;;;;;;1.67;0.40;;;14.10;63.00;14.00;95875.00;;;;5074150;28;20194;-78
2023/03/25 00:27:53;;;;;;;0.40;0.40;;;14.10;63.00;13.90;95877.00;;;;5090098;28;20840;-78
2023/03/25 00:30:20;;;;;;;1.07;0.70;;;14.00;63.00;13.90;95874.00;;;;5084299;28;20648;-79
2023/03/25 00:32:48;;;;;;;0.50;0.50;;;14.00;63.10;13.90;95875.00;;;;5094545;28;20207;-79
2023/03/25 00:35:18;;;;;;;0.53;0.53;;;14.00;63.10;13.90;95862.00;;;;5089189;28;20195;-78
2023/03/25 00:37:58;;;;;;;1.13;0.50;;;14.00;63.10;13.90;95881.00;;;;5089061;28;20257;-78
2023/03/25 00:40:28;;;;;;;0.87;0.30;;;14.00;63.10;13.90;95882.00;;;;5073586;28;20215;-78
2023/03/25 00:42:57;;;;;;;0.90;0.60;;;14.00;63.20;13.90;95876.00;;;;5085478;28;20263;-79
2023/03/25 00:45:24;;;;;;;1.40;0.50;;;14.00;63.20;13.90;95868.00;;;;5075327;28;20204;-78
2023/03/25 00:47:51;;;;;;;0.60;0.40;;;14.00;63.20;13.90;95883.00;;;;5087979;28;20351;-78
2023/03/25 00:50:20;;;;;;;1.03;0.63;;;14.00;63.10;13.90;95876.00;;;;5089668;28;20210;-78
2023/03/25 00:52:50;;;;;;;1.33;0.43;;;14.00;63.10;13.90;95880.00;;;;5088668;28;20194;-79
2023/03/25 00:55:17;;;;;;;1.20;0.40;;;14.00;63.80;13.80;95875.00;;;;5080809;28;20199;-79
2023/03/25 00:57:45;;;;;;;0.40;0.40;;;13.90;63.00;13.80;95875.00;;;;5090805;28;20199;-78
2023/03/25 01:00:17;;;;;;;1.50;0.40;;;13.90;63.00;13.80;95870.00;;;;5079307;28;20253;-78
2023/03/25 01:02:45;;;;;;;0.50;0.50;;;13.90;62.90;13.80;95881.00;;;;5094796;28;20237;-79
2023/03/25 01:05:13;;;;;;;0.90;0.50;;;13.90;63.00;13.80;95867.00;;;;5103160;28;20213;-79
2023/03/25 01:07:41;;;;;;;0.50;0.50;;;13.90;63.00;13.80;95869.00;;;;5094966;28;20259;-80
2023/03/25 01:10:11;;;;;;;0.87;0.50;;;13.90;63.00;13.70;95873.00;;;;5087980;28;20215;-79
2023/03/25 01:12:38;;;;;;;0.70;0.43;;;13.90;63.00;13.70;95861.00;;;;5086871;28;20786;-79
2023/03/25 01:15:09;;;;;;;0.50;0.50;;;13.90;63.10;13.80;95863.00;;;;5074307;28;20199;-79
2023/03/25 01:17:36;;;;;;;0.40;0.30;;;13.80;63.10;13.80;95862.00;;;;5073238;28;20203;-79
2023/03/25 01:20:07;;;;;;;0.63;0.43;;;13.80;63.00;13.80;95859.00;;;;5073866;28;20263;-79
2023/03/25 01:22:35;;;;;;;0.50;0.50;;;13.90;63.10;13.80;95855.00;;;;5078684;28;20252;-78
2023/03/25 01:25:02;;;;;;;0.80;0.60;;;13.80;63.10;13.80;95846.00;;;;5075864;28;20565;-79
2023/03/25 01:27:31;;;;;;;0.40;0.40;;;13.80;63.00;13.80;95844.00;;;;5092585;28;20199;-79
2023/03/25 01:29:59;;;;;;;0.50;0.50;;;13.80;63.00;13.80;95855.00;;;;5087434;28;20227;-79
2023/03/25 01:32:26;;;;;;;0.30;0.30;;;13.80;63.00;13.90;95850.00;;;;5088655;28;20206;-79
2023/03/25 01:34:53;;;;;;;0.40;0.40;;;13.90;63.00;13.90;95853.00;;;;5089494;28;20218;-79
2023/03/25 01:37:21;;;;;;;0.83;0.40;;;13.90;63.10;13.90;95847.00;;;;5087806;28;20202;-78
2023/03/25 01:39:48;;;;;;;0.40;0.40;;;13.90;63.10;13.90;95848.00;;;;5082049;28;20270;-78
2023/03/25 01:42:16;;;;;;;0.30;0.30;;;13.90;63.00;13.90;95845.00;;;;5074822;28;20235;-78
2023/03/25 01:45:26;;;;;;;0.40;0.40;;;13.90;62.90;13.90;95842.00;;;;5085680;28;20283;-79
2023/03/25 01:48:03;;;;;;;0.90;0.70;;;14.00;62.90;14.00;95834.00;;;;5084844;28;20207;-78
2023/03/25 01:50:32;;;;;;;1.43;0.50;;;14.00;63.00;14.00;95822.00;;;;5090710;28;20219;-78
2023/03/25 01:53:04;;;;;;;0.50;0.50;;;14.00;63.00;14.00;95816.00;;;;5089366;28;20543;-78
2023/03/25 01:55:35;;;;;;;0.50;0.30;;;14.00;63.00;14.00;95822.00;;;;5079479;28;20199;-77
2023/03/25 01:58:09;;;;;;;0.50;0.40;;;14.00;62.90;14.00;95821.00;;;;5092808;28;20195;-78
2023/03/25 02:00:39;;;;;;;0.50;0.43;;;14.00;62.90;14.10;95829.00;;;;5094342;28;20222;-79
2023/03/25 02:03:09;;;;;;;0.50;0.50;;;14.00;62.80;14.00;95824.00;;;;5090036;28;20227;-80
2023/03/25 02:05:46;;;;;;;0.53;0.40;;;14.00;62.60;14.00;95824.00;;;;5078783;28;20204;-79
2023/03/25 02:08:15;;;;;;;0.47;0.30;;;14.00;62.60;14.00;95814.00;;;;5081155;28;20931;-79
2023/03/25 02:10:46;;;;;;;0.40;0.40;;;14.00;62.40;14.00;95817.00;;;;5085782;28;20224;-79
2023/03/25 02:13:15;;;;;;;0.70;0.40;;;14.00;62.50;14.00;95813.00;;;;5090421;28;20199;-78
2023/03/25 02:16:05;;;;;;;1.90;0.60;;;14.00;62.40;14.00;95812.00;;;;5077617;28;20206;-79
2023/03/25 02:18:46;;;;;;;0.60;0.40;;;14.10;62.30;14.00;95812.00;;;;5096289;28;20478;-79
2023/03/25 02:22:28;;;;;;;0.40;0.27;;;14.00;62.20;14.00;95822.00;;;;5088407;28;20277;-79
2023/03/25 02:25:46;;;;;;;0.80;0.30;;;14.00;62.10;14.00;95817.00;;;;5083130;28;20680;-78
2023/03/25 02:28:28;;;;;;;0.40;0.30;;;14.10;62.10;14.00;95811.00;;;;5073703;28;20196;-79
2023/03/25 02:31:36;;;;;;;0.30;0.30;;;14.10;62.00;14.00;95815.00;;;;5077643;28;20659;-78
2023/03/25 02:34:40;;;;;;;0.40;0.23;;;14.10;61.80;14.00;95811.00;;;;5078026;28;20262;-79
2023/03/25 02:37:49;;;;;;;0.40;0.40;;;14.10;61.90;14.10;95802.00;;;;5095346;28;20195;-78
2023/03/25 02:40:22;;;;;;;0.50;0.30;;;14.10;61.80;14.10;95812.00;;;;5089919;28;20221;-78
2023/03/25 02:42:54;;;;;;;0.73;0.30;;;14.10;61.80;14.10;95808.00;;;;5080396;28;20730;-78
2023/03/25 02:45:31;;;;;;;0.70;0.20;;;14.10;61.70;14.10;95800.00;;;;5090903;28;20734;-78
2023/03/25 02:48:05;;;;;;;0.67;0.30;;;14.10;61.60;14.10;95791.00;;;;5075523;28;20287;-78
2023/03/25 02:50:41;;;;;;;0.73;0.40;;;14.10;61.50;14.10;95790.00;;;;5083303;28;20211;-78
2023/03/25 02:53:17;;;;;;;0.53;0.30;;;14.10;61.40;14.00;95797.00;;;;5096606;28;20203;-78
2023/03/25 02:55:49;;;;;;;0.30;0.30;;;14.10;61.30;14.00;95808.00;;;;5074434;28;20197;-77
2023/03/25 02:58:21;;;;;;;0.53;0.43;;;14.10;61.40;14.00;95812.00;;;;5079849;28;20519;-78
2023/03/25 03:00:52;;;;;;;0.60;0.40;;;14.10;61.50;14.00;95813.00;;;;5092931;28;20637;-79
2023/03/25 03:03:19;;;;;;;1.07;0.50;;;14.10;61.40;14.00;95807.00;;;;5077044;28;20254;-79
2023/03/25 03:05:53;;;;;;;0.67;0.33;;;14.10;61.30;14.00;95811.00;;;;5076868;28;20253;-79
2023/03/25 03:08:51;;;;;;;0.43;0.43;;;14.10;61.30;14.00;95815.00;;;;5082066;28;20222;-79
2023/03/25 03:11:25;;;;;;;2.00;0.80;;;14.10;61.50;14.00;95806.00;;;;5090102;28;20191;-79
2023/03/25 03:14:21;;;;;;;0.63;0.50;;;14.00;61.40;13.90;95815.00;;;;5096766;28;20248;-78
2023/03/25 03:17:02;;;;;;;0.73;0.60;;;14.10;61.30;13.90;95815.00;;;;5061185;28;20571;-79
2023/03/25 03:19:38;;;;;;;1.90;0.57;;;14.00;61.40;13.90;95803.00;;;;5071113;28;20224;-78
2023/03/25 03:22:34;;;;;;;1.10;0.53;;;14.00;61.40;13.90;95806.00;;;;5096011;28;20223;-78
2023/03/25 03:25:14;;;;;;;1.00;0.60;;;14.00;61.50;13.90;95814.00;;;;5078663;28;20191;-78
2023/03/25 03:27:49;;;;;;;1.50;0.40;;;14.00;61.40;13.90;95812.00;;;;5077003;28;20211;-79
2023/03/25 03:30:26;;;;;;;0.40;0.40;;;14.00;61.40;13.90;95798.00;;;;5092781;28;20704;-79
2023/03/25 03:33:01;;;;;;;0.60;0.30;;;14.00;61.40;13.90;95806.00;;;;5060946;28;20667;-79
2023/03/25 03:35:33;;;;;;;2.20;0.57;;;14.00;62.10;13.90;95810.00;;;;5089681;28;20904;-78
2023/03/25 03:38:08;;;;;;;1.13;0.50;;;14.00;61.40;13.90;95809.00;;;;5083595;28;20191;-79
2023/03/25 03:40:41;;;;;;;0.80;0.27;;;14.00;61.30;13.90;95815.00;;;;5095983;28;20697;-79
2023/03/25 03:43:16;;;;;;;0.70;0.37;;;14.00;61.30;13.90;95826.00;;;;5085396;28;20192;-79
2023/03/25 03:45:48;;;;;;;1.63;0.60;;;14.00;61.30;13.90;95830.00;;;;5090832;28;20613;-78
2023/03/25 03:48:22;;;;;;;0.93;0.30;;;14.00;61.40;13.90;95826.00;;;;5098343;28;20234;-79
2023/03/25 03:50:57;;;;;;;0.70;0.50;;;14.00;61.50;13.90;95830.00;;;;5083506;28;20212;-78
2023/03/25 03:53:32;;;;;;;1.13;0.63;;;14.00;61.40;13.90;95829.00;;;;5088663;28;20230;-78
2023/03/25 03:56:07;;;;;;;0.70;0.30;;;13.90;61.40;14.00;95825.00;;;;5083862;28;20230;-79
2023/03/25 03:58:41;;;;;;;0.30;0.30;;;14.00;61.40;13.90;95826.00;;;;5074930;28;20279;-79
2023/03/25 04:01:16;;;;;;;0.50;0.37;;;14.00;61.20;13.90;95824.00;;;;5089890;28;20203;-79
2023/03/25 04:03:50;;;;;;;1.00;0.50;;;13.90;61.10;13.90;95830.00;;;;5095636;28;20211;-79
2023/03/25 04:06:24;;;;;;;0.37;0.33;;;13.90;61.00;13.80;95829.00;;;;5096254;28;20195;-78
2023/03/25 04:08:59;;;;;;;0.40;0.27;;;13.90;61.70;13.80;95829.00;;;;5084299;28;20235;-79
2023/03/25 04:11:39;;;;;;;0.70;0.53;;;13.90;60.90;13.70;95828.00;;;;5075601;28;20218;-78
2023/03/25 04:14:09;;;;;;;1.27;0.40;;;13.90;60.80;13.70;95832.00;;;;5081583;28;20195;-80
2023/03/25 04:16:37;;;;;;;1.03;0.30;;;13.80;60.70;13.60;95837.00;;;;5095381;28;20205;-79
2023/03/25 04:19:05;;;;;;;0.60;0.20;;;13.80;60.70;13.60;95831.00;;;;5077419;28;22167;-79
2023/03/25 04:21:33;;;;;;;1.00;0.50;;;13.70;60.70;13.60;95831.00;;;;5083423;28;20204;-78
2023/03/25 04:24:00;;;;;;;1.10;0.43;;;13.70;60.60;13.50;95826.00;;;;5087890;28;20206;-78
2023/03/25 04:26:32;;;;;;;0.50;0.40;;;13.70;60.70;13.50;95840.00;;;;5087131;28;20200;-78
2023/03/25 04:29:00;;;;;;;2.60;0.80;;;13.60;60.60;13.40;95836.00;;;;5086164;28;20298;-78
2023/03/25 04:31:30;;;;;;;0.80;0.47;;;13.60;60.70;13.40;95835.00;;;;5087606;28;20610;-79
2023/03/25 04:33:57;;;;;;;1.63;0.43;;;13.50;60.70;13.30;95847.00;;;;5083043;28;20815;-80
2023/03/25 04:36:28;;;;;;;1.60;0.63;;;13.50;60.70;13.30;95854.00;;;;5096212;28;20191;-79
2023/03/25 04:38:56;;;;;;;3.33;0.70;;;13.50;60.70;13.20;95850.00;;;;5080566;28;20738;-79
2023/03/25 04:41:24;;;;;;;1.23;0.73;;;13.40;60.70;13.20;95846.00;;;;5088816;28;20243;-79
2023/03/25 04:43:53;;;;;;;1.57;0.40;;;13.40;60.80;13.20;95851.00;;;;5090827;28;20744;-78
2023/03/25 04:46:21;;;;;;;1.07;0.40;;;13.40;60.90;13.20;95852.00;;;;5085718;28;20219;-78
2023/03/25 04:48:48;;;;;;;0.60;0.30;;;13.40;61.10;13.20;95847.00;;;;5083118;28;20214;-79
2023/03/25 04:51:17;;;;;;;1.10;0.77;;;13.30;61.10;13.20;95849.00;;;;5100154;28;20222;-79
2023/03/25 04:53:44;;;;;;;1.90;0.40;;;13.30;61.00;13.20;95847.00;;;;5097428;28;20230;-79
2023/03/25 04:56:18;;;;;;;3.70;0.93;;;13.30;61.20;13.20;95849.00;;;;5097790;28;20216;-80
2023/03/25 04:58:46;;;;;;;1.90;0.40;;;13.30;61.20;13.20;95848.00;;;;5096511;28;20233;-80
2023/03/25 05:01:29;;;;;;;0.53;0.40;;;13.30;61.30;13.20;95853.00;;;;5084861;28;20223;-80
2023/03/25 05:04:03;;;;;;;0.57;0.30;;;13.30;61.30;13.30;95854.00;;;;5084595;28;20200;-80
2023/03/25 05:06:33;;;;;;;0.80;0.60;;;13.30;61.30;13.30;95847.00;;;;5087287;28;20225;-78
2023/03/25 05:09:03;;;;;;;0.90;0.50;;;13.30;61.30;13.30;95847.00;;;;5075572;28;20598;-78
2023/03/25 05:11:31;;;;;;;0.77;0.40;;;13.30;61.20;13.30;95837.00;;;;5084840;28;20706;-78
2023/03/25 05:14:00;;;;;;;1.47;0.40;;;13.30;61.20;13.30;95835.00;;;;5080257;28;20257;-79
2023/03/25 05:16:29;;;;;;;0.53;0.37;;;13.30;61.20;13.40;95841.00;;;;5072831;28;20261;-80
2023/03/25 05:18:56;;;;;;;0.80;0.60;;;13.40;61.30;13.40;95834.00;;;;5083174;28;20292;-79
2023/03/25 05:21:24;;;;;;;1.47;0.60;;;13.40;61.10;13.40;95833.00;;;;5091739;28;20253;-78
2023/03/25 05:23:51;;;;;;;0.40;0.40;;;13.40;61.10;13.40;95832.00;;;;5086214;28;20289;-79
2023/03/25 05:26:19;;;;;;;0.50;0.40;;;13.40;61.00;13.30;95835.00;;;;5094318;28;20199;-78
2023/03/25 05:28:50;;;;;;;0.80;0.40;;;13.40;60.90;13.40;95841.00;;;;5070173;28;20733;-80
2023/03/25 05:31:17;;;;;;;2.20;0.40;;;13.40;61.00;13.40;95849.00;;;;5092258;28;20203;-79
2023/03/25 05:33:46;;;;;;;0.87;0.23;;;13.40;61.00;13.40;95853.00;;;;5088941;28;20277;-79
2023/03/25 05:36:15;;;;;;;1.40;0.43;;;13.40;61.00;13.40;95858.00;;;;5096052;28;20230;-79
2023/03/25 05:38:44;;;;;;;1.60;0.30;;;13.40;60.90;13.40;95853.00;;;;5090557;28;20192;-79
2023/03/25 05:41:15;;;;;;;2.90;0.53;;;13.40;61.00;13.40;95857.00;;;;5098595;28;20302;-80
2023/03/25 05:43:46;;;;;;;1.10;0.40;;;13.40;61.00;13.50;95865.00;;;;5090522;28;20617;-79
2023/03/25 05:46:14;;;;;;;0.80;0.40;;;13.40;60.90;13.50;95868.00;;;;5091484;28;20191;-80
2023/03/25 05:48:42;;;;;;;2.17;0.60;;;13.50;60.90;13.50;95869.00;;;;5097599;28;20211;-80
2023/03/25 05:51:16;;;;;;;1.60;0.40;;;13.50;60.70;13.50;95855.00;;;;5081935;28;20635;-78
2023/03/25 05:53:44;;;;;;;0.57;0.43;;;13.50;60.60;13.60;95864.00;;;;5096761;28;20199;-79
2023/03/25 05:56:11;;;;;;;1.20;0.60;;;13.50;60.70;13.60;95871.00;;;;5086457;28;20246;-79
2023/03/25 05:58:39;;;;;;;2.87;0.50;;;13.60;60.70;13.70;95872.00;;;;5077318;28;20199;-79
2023/03/25 06:01:07;;;;;;;1.60;0.70;;;13.60;60.70;13.70;95877.00;;;;5089674;28;20222;-80
2023/03/25 06:03:35;;;;;;;2.10;0.40;;;13.60;60.60;13.70;95877.00;;;;5096756;28;20206;-79
2023/03/25 06:06:04;;;;;;;1.87;0.43;;;13.70;60.50;13.70;95877.00;;;;5093648;28;20723;-79
2023/03/25 06:08:34;;;;;;;0.40;0.23;;;13.70;60.50;13.80;95884.00;;;;5078979;28;20204;-79
2023/03/25 06:11:03;;;;;;;0.70;0.30;;;13.70;60.40;13.80;95891.00;;;;5085021;28;20200;-79
2023/03/25 06:13:32;;;;;;;1.13;0.33;;;13.70;60.20;13.70;95893.00;;;;5099839;28;20205;-78
2023/03/25 06:16:01;;;;;;;0.50;0.30;;;13.80;60.20;13.70;95895.00;;;;5091126;28;20196;-79
2023/03/25 06:18:32;;;;;;;1.97;0.67;;;13.70;60.20;13.80;95906.00;;;;5086574;28;20222;-81
2023/03/25 06:21:00;;;;;;;0.33;0.33;;;13.70;60.20;13.80;95904.00;;;;5105367;28;20219;-83
2023/03/25 06:23:28;;;;;;;0.83;0.40;;;13.80;60.10;13.80;95914.00;;;;5095903;28;20203;-82
2023/03/25 06:25:57;;;;;;;0.50;0.30;;;13.80;60.20;13.90;95915.00;;;;5101588;28;20206;-82
2023/03/25 06:28:25;;;;;;;0.40;0.30;;;13.80;60.10;14.00;95910.00;;;;5098682;28;20200;-82
2023/03/25 06:30:52;;;;;;;0.70;0.40;;;13.80;59.90;14.00;95918.00;;;;5091836;28;20243;-81
2023/03/25 06:33:20;;;;;;;0.20;0.20;;;13.90;59.90;14.10;95921.00;;;;5088092;28;20272;-81
2023/03/25 06:35:52;;;;;;;0.20;0.20;;;13.90;59.80;14.10;95927.00;;;;5093356;28;20606;-82
2023/03/25 06:38:21;;;;;;;0.30;0.20;;;13.90;59.70;14.20;95917.00;;;;5097430;28;20203;-82
2023/03/25 06:40:49;;;;;;;0.30;0.27;;;14.00;59.60;14.20;95917.00;;;;5095849;28;20632;-81
2023/03/25 06:43:17;;;;;;;0.77;0.40;;;14.00;59.60;14.20;95923.00;;;;5086816;28;20286;-84
2023/03/25 06:45:45;;;;;;;0.40;0.30;;;14.10;59.50;14.30;95926.00;;;;5095008;28;20293;-81
2023/03/25 06:48:12;;;;;;;0.67;0.30;;;14.10;59.40;14.30;95929.00;;;;5096730;28;20219;-82
2023/03/25 06:50:39;;;;;;;0.53;0.20;;;14.10;59.30;14.20;95917.00;;;;5076021;28;20291;-82
2023/03/25 06:53:06;;;;;;;0.77;0.33;;;14.10;59.10;14.20;95923.00;;;;5092053;28;20282;-84
2023/03/25 06:55:34;;;;;;;0.53;0.50;;;14.10;59.10;14.20;95924.00;;;;5097139;28;20222;-80
2023/03/25 06:58:01;;;;;;;0.57;0.57;;;14.20;59.10;14.20;95924.00;;;;5095420;28;20209;-83
2023/03/25 07:00:30;;;;;;;0.93;0.50;;;14.20;59.00;14.20;95924.00;;;;5083310;28;20228;-83
2023/03/25 07:02:58;;;;;;;0.43;0.30;;;14.20;59.50;14.20;95927.00;;;;5089265;28;20276;-83
2023/03/25 07:05:26;;;;;;;0.20;0.20;;;14.10;58.80;14.20;95947.00;;;;5084998;28;20246;-85
2023/03/25 07:07:53;;;;;;;0.30;0.17;;;14.10;58.70;14.20;95950.00;;;;5076656;28;20215;-83
2023/03/25 07:10:21;;;;;;;1.00;0.30;;;14.10;58.70;14.20;95949.00;;;;5085788;28;20215;-81
2023/03/25 07:12:48;;;;;;;0.10;0.10;;;14.10;58.60;14.20;95958.00;;;;5096481;28;20290;-83
2023/03/25 07:15:16;;;;;;;0.30;0.20;;;14.10;58.50;14.20;95960.00;;;;5089669;28;20275;-81
2023/03/25 07:17:48;;;;;;;0.10;0.10;;;14.10;58.20;14.10;95952.00;;;;5099722;28;20286;-82
2023/03/25 07:20:15;;;;;;;0.70;0.23;;;14.10;58.30;14.10;95970.00;;;;5099229;28;20207;-79
2023/03/25 07:22:43;;;;;;;0.53;0.20;;;14.10;58.40;14.20;95967.00;;;;5092676;28;20663;-81
2023/03/25 07:25:10;;;;;;;0.23;0.23;;;14.10;58.30;14.20;95982.00;;;;5072257;28;20682;-79
2023/03/25 07:27:38;;;;;;;1.37;0.30;;;14.10;58.30;14.20;95985.00;;;;5096019;28;20267;-82
2023/03/25 07:30:07;;;;;;;0.30;0.20;;;14.10;58.20;14.20;95980.00;;;;5094265;28;20746;-81
2023/03/25 07:32:35;;;;;;;0.20;0.20;;;14.10;58.00;14.20;95985.00;;;;5094798;28;20197;-82
2023/03/25 07:35:08;;;;;;;0.93;0.43;;;14.10;57.80;14.20;95996.00;;;;5091403;28;20242;-81
2023/03/25 07:37:35;;;;;;;0.60;0.40;;;14.10;57.80;14.20;95997.00;;;;5091024;28;20886;-81
2023/03/25 07:40:03;;;;;;;0.70;0.37;;;14.10;57.80;14.20;95996.00;;;;5095895;28;20637;-81
2023/03/25 07:42:32;;;;;;;0.10;0.10;;;14.10;58.00;14.20;96002.00;;;;5084895;28;20303;-82
2023/03/25 07:44:59;;;;;;;0.40;0.10;;;14.20;57.90;14.30;96004.00;;;;5081746;28;20227;-82
2023/03/25 07:47:26;;;;;;;0.23;0.10;;;14.20;57.90;14.40;95999.00;;;;5097150;28;20231;-86
2023/03/25 07:49:54;;;;;;;0.90;0.20;;;14.20;57.80;14.50;95995.00;;;;5075411;28;20219;-80
2023/03/25 07:52:23;;;;;;;0.30;0.10;;;14.30;57.50;14.60;95999.00;;;;5084551;28;20282;-82
2023/03/25 07:54:50;;;;;;;0.27;0.27;;;14.30;57.50;14.70;95994.00;;;;5093629;28;20274;-81
2023/03/25 07:57:20;;;;;;;0.33;0.20;;;14.40;57.80;14.90;96009.00;;;;5096696;28;20278;-81
2023/03/25 07:59:48;;;;;;;0.50;0.30;;;14.50;58.00;15.00;96012.00;;;;5096894;28;20215;-80
2023/03/25 08:02:15;;;;;;;0.47;0.30;;;14.60;57.80;15.10;96014.00;;;;5079600;28;20283;-82
2023/03/25 08:04:43;;;;;;;0.80;0.30;;;14.70;57.40;15.10;96016.00;;;;5089682;28;20204;-82
2023/03/25 08:07:11;;;;;;;0.63;0.30;;;14.70;57.10;15.00;96006.00;;;;5096536;28;20663;-82
2023/03/25 08:09:42;;;;;;;0.23;0.20;;;14.80;56.90;15.00;96012.00;;;;5078586;28;20247;-82
2023/03/25 08:12:09;;;;;;;0.70;0.10;;;14.80;56.70;14.90;96005.00;;;;5076483;28;20204;-83
2023/03/25 08:14:36;;;;;;;0.60;0.20;;;14.80;56.40;14.90;95999.00;;;;5074380;28;20234;-82
2023/03/25 08:17:06;;;;;;;1.50;0.40;;;14.80;56.60;14.90;96007.00;;;;5076306;28;20279;-82
2023/03/25 08:19:35;;;;;;;0.53;0.20;;;14.80;56.70;15.00;96012.00;;;;5075696;28;20752;-81
2023/03/25 08:22:03;;;;;;;0.47;0.40;;;14.80;56.60;15.10;96008.00;;;;5083677;28;20214;-81
2023/03/25 08:24:31;;;;;;;1.33;0.20;;;14.90;56.90;15.20;96007.00;;;;5098188;28;20195;-80
2023/03/25 08:27:00;;;;;;;0.47;0.47;;;14.90;57.10;15.40;96022.00;;;;5116412;28;20203;-80
2023/03/25 08:29:33;;;;;;;0.57;0.40;;;15.00;57.10;15.50;96016.00;;;;5116477;28;20219;-80
2023/03/25 08:32:00;;;;;;;0.40;0.40;;;15.10;56.60;15.60;96008.00;;;;5115928;27;20198;-83
2023/03/25 08:34:28;;;;;;;0.57;0.30;;;15.20;56.50;15.70;96004.00;;;;5087371;28;20201;-80
2023/03/25 08:36:55;;;;;;;0.47;0.30;;;15.30;56.70;15.80;96009.00;;;;5077709;28;20206;-81
2023/03/25 08:39:29;;;;;;;0.63;0.50;;;15.40;56.50;15.90;96001.00;;;;5081663;28;20255;-83
2023/03/25 08:41:58;;;;;;;0.80;0.30;;;15.50;56.30;15.90;96012.00;;;;5091264;28;20230;-81
2023/03/25 08:44:26;;;;;;;0.57;0.27;;;15.60;56.10;15.90;96010.00;;;;5087580;28;20187;-82
2023/03/25 08:46:54;;;;;;;0.87;0.50;;;15.60;55.90;15.90;96009.00;;;;5096598;28;20286;-82
2023/03/25 08:49:21;;;;;;;0.27;0.27;;;15.60;56.10;16.00;96001.00;;;;5087184;28;20276;-81
2023/03/25 08:51:48;;;;;;;0.60;0.50;;;15.70;56.10;16.10;96005.00;;;;5079886;28;20227;-82
2023/03/25 08:54:16;;;;;;;0.77;0.57;;;15.70;56.00;16.10;96008.00;;;;5083744;28;20191;-82
2023/03/25 08:56:44;;;;;;;0.60;0.30;;;15.80;55.90;16.20;95998.00;;;;5083826;28;20226;-81
2023/03/25 08:59:11;;;;;;;0.97;0.40;;;15.80;56.50;16.20;96004.00;;;;5086612;28;20782;-84
2023/03/25 09:01:43;;;;;;;0.40;0.37;;;15.80;55.80;16.20;95993.00;;;;5100841;28;20719;-81
2023/03/25 09:04:11;;;;;;;1.33;0.40;;;15.90;55.50;16.20;96009.00;;;;5098405;28;20388;-82
2023/03/25 09:06:39;;;;;;;0.23;0.23;;;15.90;55.30;16.20;96000.00;;;;5094948;28;20215;-81
2023/03/25 09:09:08;;;;;;;0.20;0.20;;;15.90;55.20;16.10;95992.00;;;;5099443;28;20236;-81
2023/03/25 09:11:35;;;;;;;0.40;0.20;;;15.90;55.20;16.10;95998.00;;;;5081475;28;20203;-80
2023/03/25 09:14:03;;;;;;;0.37;0.10;;;15.90;55.10;16.10;95989.00;;;;5092089;28;20294;-82
2023/03/25 09:16:33;;;;;;;0.33;0.10;;;15.90;55.10;16.10;95998.00;;;;5086105;28;20207;-80
2023/03/25 09:19:03;;;;;;;0.10;0.10;;;15.90;55.10;16.10;96003.00;;;;5084865;28;20212;-82
2023/03/25 09:21:30;;;;;;;0.10;0.10;;;15.90;55.10;16.10;95987.00;;;;5093414;28;20222;-80
2023/03/25 09:23:58;;;;;;;0.50;0.10;;;15.90;55.10;16.10;95991.00;;;;5084364;28;20237;-81
2023/03/25 09:26:25;;;;;;;0.10;0.10;;;15.90;55.20;16.20;95983.00;;;;5073333;28;20195;-80
2023/03/25 09:28:55;;;;;;;0.50;0.10;;;15.90;55.40;16.30;95981.00;;;;5082003;28;20234;-81
2023/03/25 09:31:23;;;;;;;0.00;0.00;;;15.90;55.40;16.40;95989.00;;;;5090812;28;20728;-81
2023/03/25 09:33:51;;;;;;;0.23;0.23;;;16.00;55.50;16.50;95992.00;;;;5078236;28;20191;-82
2023/03/25 09:36:20;;;;;;;0.10;0.10;;;16.00;55.30;16.50;95985.00;;;;5065221;28;20184;-81
2023/03/25 09:38:47;;;;;;;0.13;0.13;;;16.10;55.10;16.60;95981.00;;;;5080040;28;20218;-83
2023/03/25 09:41:46;;;;;;;0.40;0.20;;;16.20;55.00;16.60;95984.00;;;;5074228;28;20251;-81
2023/03/25 09:44:20;;;;;;;0.47;0.20;;;16.20;54.70;16.60;95980.00;;;;5088622;28;20195;-84
2023/03/25 09:46:49;;;;;;;0.33;0.10;;;16.30;55.00;16.80;95977.00;;;;5073855;28;20215;-82
2023/03/25 09:49:24;;;;;;;0.83;0.10;;;16.30;55.50;17.10;95977.00;;;;5073407;28;20251;-83
2023/03/25 09:51:56;;;;;;;0.10;0.07;;;16.50;55.60;17.30;95987.00;;;;5073251;28;20663;-82
2023/03/25 09:54:30;;;;;;;0.20;0.20;;;16.70;55.30;17.40;96010.00;;;;5078097;28;20260;-82
2023/03/25 09:57:06;;;;;;;0.10;0.10;;;16.80;54.60;17.30;95984.00;;;;5093756;28;20289;-82
2023/03/25 09:59:42;;;;;;;0.20;0.10;;;16.90;54.40;17.30;95979.00;;;;5094235;28;20215;-82
2023/03/25 10:02:32;;;;;;;0.23;0.17;;;16.90;54.20;17.30;95961.00;;;;5083665;28;20274;-82
2023/03/25 10:05:23;;;;;;;0.10;0.10;;;17.00;54.50;17.40;95964.00;;;;5080465;28;20249;-82
2023/03/25 10:08:08;;;;;;;0.30;0.30;;;17.00;54.20;17.40;95970.00;;;;5075532;28;20192;-82
2023/03/25 10:10:44;;;;;;;0.20;0.10;;;17.10;53.70;17.30;95975.00;;;;5091018;28;20709;-82
2023/03/25 10:13:24;;;;;;;0.40;0.10;;;17.10;53.80;17.30;95972.00;;;;5090285;28;20252;-82
2023/03/25 10:15:59;;;;;;;0.73;0.23;;;17.10;53.70;17.30;95967.00;;;;5091914;28;20196;-82
2023/03/25 10:18:55;;;;;;;0.20;0.20;;;17.10;53.60;17.30;95972.00;;;;5086209;28;20199;-82
2023/03/25 10:21:32;;;;;;;0.80;0.20;;;17.10;53.60;17.30;95961.00;;;;5083239;28;20234;-81
2023/03/25 10:24:16;;;;;;;0.73;0.30;;;17.10;53.40;17.30;95961.00;;;;5071006;28;20203;-79
2023/03/25 10:26:50;;;;;;;1.80;0.30;;;17.10;53.10;17.20;95965.00;;;;5094438;28;20631;-81
2023/03/25 10:29:28;;;;;;;0.80;0.40;;;17.10;53.00;17.10;95966.00;;;;5089797;28;20339;-82
2023/03/25 10:32:01;;;;;;;0.20;0.20;;;17.00;52.90;17.00;95973.00;;;;5080181;28;20874;-83
2023/03/25 10:34:39;;;;;;;0.40;0.20;;;17.00;52.90;17.00;95949.00;;;;5088151;28;20970;-81
2023/03/25 10:37:13;;;;;;;0.77;0.30;;;16.90;52.70;17.00;95954.00;;;;5093556;28;20220;-79
2023/03/25 10:39:46;;;;;;;1.13;0.70;;;16.80;53.00;17.00;95938.00;;;;5077367;28;20665;-82
2023/03/25 10:42:26;;;;;;;0.57;0.20;;;16.80;53.10;17.10;95941.00;;;;5087977;28;20441;-84
2023/03/25 10:44:54;;;;;;;0.23;0.17;;;16.80;53.20;17.20;95945.00;;;;5094787;28;20255;-81
2023/03/25 10:47:29;;;;;;;0.90;0.27;;;16.80;53.60;17.30;95942.00;;;;5080591;28;20230;-81
2023/03/25 10:49:59;;;;;;;0.27;0.20;;;16.90;53.30;17.50;95938.00;;;;5088414;28;20243;-79
2023/03/25 10:52:26;;;;;;;0.20;0.13;;;17.00;53.40;17.50;95934.00;;;;5076720;28;20196;-79
2023/03/25 10:55:04;;;;;;;0.60;0.30;;;17.10;53.30;17.60;95936.00;;;;5081314;28;20226;-80
2023/03/25 10:57:32;;;;;;;1.07;0.40;;;17.20;52.80;17.60;95945.00;;;;5083881;28;20257;-83
2023/03/25 11:00:11;;;;;;;2.87;0.30;;;17.20;52.70;17.60;95939.00;;;;5086145;28;20223;-83
2023/03/25 11:02:38;;;;;;;0.50;0.30;;;17.20;52.50;17.50;95936.00;;;;5079840;28;20243;-82
2023/03/25 11:05:09;;;;;;;0.27;0.20;;;17.20;52.50;17.50;95922.00;;;;5085084;28;20690;-81
2023/03/25 11:07:42;;;;;;;0.23;0.23;;;17.20;52.00;17.50;95917.00;;;;5095421;28;20199;-82
2023/03/25 11:10:21;;;;;;;0.77;0.40;;;17.20;52.10;17.50;95913.00;;;;5090529;28;20208;-82
2023/03/25 11:12:51;;;;;;;0.40;0.20;;;17.30;52.20;17.50;95916.00;;;;5077233;28;20192;-82
2023/03/25 11:15:23;;;;;;;0.40;0.30;;;17.20;52.30;17.50;95899.00;;;;5078977;28;20188;-82